Time;durP1;ratioP1;P1;durP2;ratioP2;P2;SDS_P1;SDS_P2;PMS_P1;PMS_P2;Temp;Humidity;BMP_temperature;BMP_pressure;BME280_temperature;BME280_humidity;BME280_pressure;Samples;Min_cycle;Max_cycle;Signal;HPM_P1;HPM_P2
2024/02/07 00:00:24;;;;;;;179.27;72.97;;;;;4.80;96383.00;;;;4934600;28;20459;-67
2024/02/07 00:03:13;;;;;;;201.13;81.67;;;;;4.70;96386.00;;;;4945135;28;20431;-68
2024/02/07 00:06:02;;;;;;;174.57;70.13;;;;;4.60;96385.00;;;;4940510;28;20437;-67
2024/02/07 00:08:51;;;;;;;172.00;71.27;;;;;3.90;96373.00;;;;4943023;28;21019;-66
2024/02/07 00:11:43;;;;;;;188.20;75.63;;;;;4.80;96377.00;;;;4948398;28;20436;-65
2024/02/07 00:14:32;;;;;;;166.93;69.77;;;;;4.70;96377.00;;;;4947236;28;20432;-64
2024/02/07 00:17:22;;;;;;;172.90;69.87;;;;;5.10;96368.00;;;;4941233;28;20440;-67
2024/02/07 00:20:11;;;;;;;174.43;71.27;;;;;3.40;96359.00;;;;4947000;28;20457;-65
2024/02/07 00:23:01;;;;;;;171.27;70.33;;;;;3.20;96343.00;;;;4950557;28;20432;-67
2024/02/07 00:25:50;;;;;;;182.17;74.83;;;;;3.60;96343.00;;;;4939445;28;20489;-67
2024/02/07 00:28:41;;;;;;;195.47;78.10;;;;;3.90;96354.00;;;;4942281;28;20493;-68
2024/02/07 00:31:30;;;;;;;175.73;70.00;;;;;3.70;96344.00;;;;4949647;28;20428;-68
2024/02/07 00:34:19;;;;;;;186.60;70.27;;;;;4.60;96352.00;;;;4946165;28;20428;-66
2024/02/07 00:37:08;;;;;;;183.27;68.83;;;;;4.20;96338.00;;;;4940641;28;20425;-65
2024/02/07 00:39:57;;;;;;;218.03;69.27;;;;;4.30;96343.00;;;;4944269;28;20456;-68
2024/02/07 00:42:47;;;;;;;199.67;84.87;;;;;5.00;96344.00;;;;4947413;28;20428;-67
2024/02/07 00:45:37;;;;;;;321.93;104.33;;;;;5.10;96348.00;;;;4941708;28;20961;-67
2024/02/07 00:48:26;;;;;;;268.60;90.67;;;;;4.90;96351.00;;;;4939765;28;20475;-67
2024/02/07 00:51:15;;;;;;;325.10;89.83;;;;;4.90;96343.00;;;;4940816;28;20447;-68
2024/02/07 00:54:05;;;;;;;243.50;77.03;;;;;4.60;96348.00;;;;4939118;28;20490;-68
2024/02/07 00:56:56;;;;;;;239.90;79.17;;;;;4.10;96335.00;;;;4948109;28;20432;-68
2024/02/07 00:59:45;;;;;;;266.63;79.57;;;;;3.70;96328.00;;;;4936079;28;20459;-67
2024/02/07 01:02:36;;;;;;;319.03;77.17;;;;;3.80;96327.00;;;;4943155;28;20444;-68
2024/02/07 01:05:25;;;;;;;294.20;75.07;;;;;3.80;96316.00;;;;4940030;28;20429;-68
2024/02/07 01:08:15;;;;;;;249.77;83.37;;;;;3.70;96315.00;;;;4937331;28;20967;-68
2024/02/07 01:11:04;;;;;;;209.80;75.67;;;;;4.10;96325.00;;;;4933993;28;20432;-67
2024/02/07 01:13:53;;;;;;;203.40;72.20;;;;;3.90;96334.00;;;;4938352;28;20446;-65
2024/02/07 01:16:42;;;;;;;209.73;77.10;;;;;4.00;96327.00;;;;4944921;28;20827;-68
2024/02/07 01:19:33;;;;;;;206.77;75.97;;;;;3.60;96317.00;;;;4935294;28;20460;-67
2024/02/07 01:22:22;;;;;;;221.87;75.50;;;;;3.90;96325.00;;;;4948495;28;20520;-66
2024/02/07 01:25:12;;;;;;;280.73;80.63;;;;;3.30;96318.00;;;;4939527;28;20451;-68
2024/02/07 01:28:01;;;;;;;214.33;77.50;;;;;3.30;96318.00;;;;4937751;28;20463;-66
2024/02/07 01:30:52;;;;;;;199.57;75.50;;;;;3.30;96308.00;;;;4938679;28;20448;-66
2024/02/07 01:33:42;;;;;;;190.70;69.73;;;;;3.50;96299.00;;;;4944870;28;20439;-66
2024/02/07 01:36:32;;;;;;;190.97;66.77;;;;;3.30;96306.00;;;;4943911;28;20973;-66
2024/02/07 01:39:23;;;;;;;305.10;93.97;;;;;3.20;96293.00;;;;4937568;28;20449;-65
2024/02/07 01:42:12;;;;;;;192.73;69.63;;;;;3.90;96315.00;;;;4941842;28;20432;-65
2024/02/07 01:45:30;;;;;;;188.87;67.10;;;;;4.40;96309.00;;;;4937412;28;20425;-67
2024/02/07 01:48:19;;;;;;;336.27;118.03;;;;;4.60;96295.00;;;;4924550;28;20856;-67
2024/02/07 01:51:08;;;;;;;312.00;90.57;;;;;3.60;96287.00;;;;4940436;28;20425;-67
2024/02/07 01:53:59;;;;;;;322.20;75.60;;;;;3.60;96287.00;;;;4944567;28;20437;-67
2024/02/07 01:56:48;;;;;;;141.20;64.40;;;;;4.00;96282.00;;;;4936795;28;20421;-67
2024/02/07 01:59:37;;;;;;;320.50;91.63;;;;;3.60;96273.00;;;;4935205;28;20467;-67
2024/02/07 02:02:27;;;;;;;286.90;90.07;;;;;3.30;96274.00;;;;4945331;28;21018;-67
2024/02/07 02:05:16;;;;;;;291.87;72.87;;;;;3.20;96261.00;;;;4938094;28;20797;-67
2024/02/07 02:08:05;;;;;;;307.30;80.73;;;;;3.50;96272.00;;;;4939616;28;20472;-67
2024/02/07 02:11:01;;;;;;;319.73;74.07;;;;;3.80;96259.00;;;;4948669;28;20432;-66
2024/02/07 02:13:52;;;;;;;305.40;75.67;;;;;3.80;96260.00;;;;4944043;28;20904;-67
2024/02/07 02:16:41;;;;;;;312.53;80.67;;;;;3.90;96256.00;;;;4933790;28;20812;-67
2024/02/07 02:19:30;;;;;;;204.73;69.93;;;;;3.50;96248.00;;;;4996703;23;20553;-69
2024/02/07 02:22:39;;;;;;;191.47;69.43;;;;;3.80;96248.00;;;;5081910;28;20433;-70
2024/02/07 02:25:53;;;;;;;178.27;67.03;;;;;3.30;96244.00;;;;5076692;28;20472;-70
2024/02/07 02:28:57;;;;;;;198.30;74.37;;;;;3.50;96239.00;;;;5075176;28;20844;-70
2024/02/07 02:31:49;;;;;;;191.63;70.63;;;;;3.40;96238.00;;;;5060445;28;20419;-70
2024/02/07 02:34:39;;;;;;;208.13;75.83;;;;;3.50;96244.00;;;;5052328;28;21167;-70
2024/02/07 02:37:29;;;;;;;213.90;74.97;;;;;4.10;96230.00;;;;5056805;28;20435;-69
2024/02/07 02:40:19;;;;;;;300.57;71.73;;;;;3.30;96228.00;;;;5051366;28;20459;-71
2024/02/07 02:43:09;;;;;;;217.70;72.40;;;;;2.70;96234.00;;;;5064374;28;20434;-70
2024/02/07 02:45:59;;;;;;;245.63;72.83;;;;;3.80;96235.00;;;;5057822;28;20434;-70
2024/02/07 02:48:49;;;;;;;264.77;77.67;;;;;4.20;96220.00;;;;5063179;28;20451;-71
2024/02/07 02:51:38;;;;;;;321.33;108.70;;;;;3.70;96232.00;;;;5060917;28;20427;-70
2024/02/07 02:54:31;;;;;;;315.27;84.43;;;;;3.50;96228.00;;;;5054921;28;20433;-71
2024/02/07 02:57:22;;;;;;;240.17;73.80;;;;;3.10;96231.00;;;;5055495;28;20431;-70
2024/02/07 03:00:14;;;;;;;329.90;121.30;;;;;3.20;96214.00;;;;5059891;28;20450;-70
2024/02/07 03:03:03;;;;;;;282.70;75.57;;;;;3.90;96220.00;;;;5059516;28;20423;-70
2024/02/07 03:05:58;;;;;;;228.73;75.63;;;;;3.50;96231.00;;;;5055028;28;20430;-71
2024/02/07 03:08:54;;;;;;;239.27;73.13;;;;;4.10;96232.00;;;;5057363;28;20459;-71
2024/02/07 03:11:43;;;;;;;280.70;79.60;;;;;4.40;96240.00;;;;5064633;28;20955;-70
2024/02/07 03:14:32;;;;;;;278.53;75.30;;;;;3.80;96229.00;;;;5061872;28;20535;-71
2024/02/07 03:17:21;;;;;;;290.43;73.17;;;;;2.70;96219.00;;;;5064156;28;20422;-69
2024/02/07 03:20:12;;;;;;;192.17;67.43;;;;;3.90;96220.00;;;;5059702;28;20468;-70
2024/02/07 03:23:03;;;;;;;184.60;66.67;;;;;3.50;96218.00;;;;5060938;28;20430;-69
2024/02/07 03:25:52;;;;;;;192.20;69.70;;;;;3.10;96201.00;;;;5060981;28;20431;-69
2024/02/07 03:28:42;;;;;;;224.03;76.83;;;;;2.60;96194.00;;;;5056865;28;20470;-69
2024/02/07 03:31:36;;;;;;;258.73;78.13;;;;;2.20;96199.00;;;;5062905;28;20431;-69
2024/02/07 03:34:26;;;;;;;238.87;72.10;;;;;2.50;96204.00;;;;5068544;28;20571;-70
2024/02/07 03:37:15;;;;;;;190.87;66.20;;;;;1.90;96198.00;;;;5067748;28;20418;-69
2024/02/07 03:40:12;;;;;;;193.23;66.87;;;;;2.80;96210.00;;;;5062423;28;20978;-70
2024/02/07 03:43:01;;;;;;;231.43;68.27;;;;;3.20;96200.00;;;;5068629;28;20433;-70
2024/02/07 03:45:52;;;;;;;270.67;74.43;;;;;3.20;96193.00;;;;5063009;28;20430;-70
2024/02/07 03:48:41;;;;;;;269.57;77.37;;;;;1.60;96201.00;;;;5068242;28;20457;-69
2024/02/07 03:51:31;;;;;;;313.70;87.50;;;;;2.10;96207.00;;;;5062187;28;20422;-69
2024/02/07 03:54:20;;;;;;;219.23;79.33;;;;;3.20;96190.00;;;;5060777;28;20811;-68
2024/02/07 03:57:11;;;;;;;260.77;92.27;;;;;3.30;96211.00;;;;5060970;28;20423;-69
2024/02/07 04:00:00;;;;;;;296.20;113.90;;;;;2.40;96191.00;;;;5060312;28;20445;-70
2024/02/07 04:02:50;;;;;;;316.83;98.10;;;;;2.30;96212.00;;;;5061065;28;20431;-71
2024/02/07 04:05:40;;;;;;;338.27;111.83;;;;;2.80;96211.00;;;;5062444;28;20430;-70
2024/02/07 04:08:29;;;;;;;306.43;82.97;;;;;3.10;96199.00;;;;5064729;28;20802;-70
2024/02/07 05:16:12;;;;;;;222.63;70.83;;;;;2.40;96188.00;;;;5056563;28;20436;-70
2024/02/07 05:19:02;;;;;;;195.07;70.70;;;;;2.10;96184.00;;;;5054272;28;20418;-69
2024/02/07 05:21:51;;;;;;;183.93;66.67;;;;;2.10;96182.00;;;;5055302;28;20423;-68
2024/02/07 05:24:41;;;;;;;174.33;66.13;;;;;1.90;96177.00;;;;5051604;28;20449;-70
2024/02/07 05:27:30;;;;;;;167.00;62.40;;;;;1.60;96169.00;;;;5058616;28;20423;-70
2024/02/07 05:30:19;;;;;;;166.87;63.83;;;;;1.60;96177.00;;;;5052189;28;20467;-70
2024/02/07 05:33:10;;;;;;;175.13;66.50;;;;;1.60;96176.00;;;;5064969;28;20447;-69
2024/02/07 05:35:59;;;;;;;161.47;62.47;;;;;1.90;96182.00;;;;5059028;28;21290;-70
2024/02/07 05:38:48;;;;;;;166.00;63.00;;;;;2.40;96184.00;;;;5060010;28;20465;-70
2024/02/07 05:41:37;;;;;;;179.00;64.80;;;;;2.50;96178.00;;;;5063341;28;20433;-68
2024/02/07 05:44:27;;;;;;;187.43;65.17;;;;;2.30;96173.00;;;;5058332;28;20442;-70
2024/02/07 05:47:16;;;;;;;151.90;60.00;;;;;1.60;96176.00;;;;5053552;28;20431;-67
2024/02/07 05:50:09;;;;;;;159.37;62.00;;;;;2.20;96179.00;;;;5056820;28;20466;-69
2024/02/07 05:52:58;;;;;;;190.13;65.67;;;;;2.00;96180.00;;;;5062192;28;20446;-69
2024/02/07 05:55:47;;;;;;;279.73;89.80;;;;;2.10;96187.00;;;;5055334;28;20416;-69
2024/02/07 05:58:39;;;;;;;202.93;73.30;;;;;2.40;96189.00;;;;5061235;28;20432;-68
2024/02/07 06:01:29;;;;;;;270.70;89.70;;;;;2.80;96189.00;;;;5058947;28;20907;-69
2024/02/07 06:04:19;;;;;;;280.10;70.17;;;;;2.70;96191.00;;;;5063102;28;20422;-71
2024/02/07 06:07:09;;;;;;;254.50;73.13;;;;;2.60;96194.00;;;;5060756;28;20429;-68
2024/02/07 06:09:59;;;;;;;249.63;70.90;;;;;3.40;96194.00;;;;5058343;28;20854;-70
2024/02/07 06:12:48;;;;;;;267.73;76.23;;;;;3.30;96208.00;;;;5060750;28;20455;-68
2024/02/07 06:15:37;;;;;;;260.80;77.53;;;;;2.70;96195.00;;;;5062831;28;20438;-69
2024/02/07 06:18:26;;;;;;;270.70;74.23;;;;;2.40;96186.00;;;;5060065;28;20454;-67
2024/02/07 06:21:16;;;;;;;264.60;69.93;;;;;2.20;96195.00;;;;5060780;28;20481;-70
2024/02/07 06:24:07;;;;;;;281.63;75.33;;;;;2.80;96189.00;;;;5060307;28;20438;-71
2024/02/07 06:26:57;;;;;;;286.17;75.80;;;;;2.80;96190.00;;;;5064875;28;20435;-70
2024/02/07 06:29:46;;;;;;;301.17;78.47;;;;;2.40;96179.00;;;;5056792;28;20554;-71
2024/02/07 06:32:35;;;;;;;295.17;73.37;;;;;2.60;96185.00;;;;5065337;28;20454;-70
2024/02/07 06:35:25;;;;;;;303.97;73.13;;;;;3.10;96185.00;;;;5063385;28;20438;-70
2024/02/07 06:38:14;;;;;;;364.27;116.03;;;;;3.70;96198.00;;;;5047071;28;20835;-70
2024/02/07 06:41:05;;;;;;;356.27;103.03;;;;;3.60;96190.00;;;;5034446;28;20458;-70
2024/02/07 06:43:54;;;;;;;323.83;80.40;;;;;3.40;96198.00;;;;5054118;28;20443;-69
2024/02/07 06:46:44;;;;;;;337.83;81.73;;;;;3.10;96182.00;;;;5059713;28;20524;-69
2024/02/07 06:49:37;;;;;;;328.27;76.53;;;;;3.60;96195.00;;;;5026611;28;20857;-69
2024/02/07 06:52:26;;;;;;;317.47;71.77;;;;;3.00;96188.00;;;;5059830;28;21367;-68
2024/02/07 06:55:15;;;;;;;317.37;70.80;;;;;2.20;96180.00;;;;5063708;28;20470;-69
2024/02/07 06:58:06;;;;;;;319.60;72.90;;;;;2.30;96180.00;;;;5062918;28;20448;-68
2024/02/07 07:00:56;;;;;;;426.87;140.90;;;;;2.60;96189.00;;;;5048423;28;20458;-69
2024/02/07 07:03:47;;;;;;;423.77;142.97;;;;;2.20;96176.00;;;;5008305;28;20440;-69
2024/02/07 07:06:38;;;;;;;360.90;97.07;;;;;2.50;96184.00;;;;5006920;28;22733;-69
2024/02/07 07:09:27;;;;;;;418.60;143.57;;;;;2.40;96174.00;;;;5006504;28;20450;-69
2024/02/07 07:12:17;;;;;;;349.63;90.13;;;;;2.30;96169.00;;;;5006158;28;23082;-66
2024/02/07 07:15:09;;;;;;;408.70;135.23;;;;;2.20;96168.00;;;;5009623;28;20469;-70
2024/02/07 07:18:02;;;;;;;418.50;142.20;;;;;2.50;96184.00;;;;5021472;28;20549;-69
2024/02/07 07:20:51;;;;;;;358.73;108.30;;;;;2.70;96171.00;;;;5025858;28;20442;-68
2024/02/07 07:23:40;;;;;;;320.47;74.27;;;;;3.10;96183.00;;;;5014742;28;20554;-70
2024/02/07 07:26:29;;;;;;;306.40;71.70;;;;;3.40;96188.00;;;;5044082;28;20434;-68
2024/02/07 07:29:18;;;;;;;317.10;70.70;;;;;3.40;96189.00;;;;5058434;28;20464;-69
2024/02/07 07:32:09;;;;;;;310.80;71.07;;;;;3.90;96188.00;;;;5054740;28;20457;-69
2024/02/07 07:34:58;;;;;;;313.07;69.50;;;;;3.30;96174.00;;;;5062809;28;20446;-70
2024/02/07 07:37:48;;;;;;;321.93;77.37;;;;;3.60;96181.00;;;;5054762;28;20435;-69
2024/02/07 07:40:40;;;;;;;320.97;74.87;;;;;3.80;96170.00;;;;5059082;28;20459;-70
2024/02/07 07:43:29;;;;;;;316.97;75.80;;;;;3.00;96162.00;;;;5057234;28;20434;-70
2024/02/07 07:46:18;;;;;;;318.63;71.83;;;;;3.30;96173.00;;;;5057620;28;20806;-71
2024/02/07 07:49:09;;;;;;;323.77;75.97;;;;;3.40;96165.00;;;;5049475;28;20432;-69
2024/02/07 07:51:58;;;;;;;318.70;73.30;;;;;3.20;96162.00;;;;5064224;28;20833;-68
2024/02/07 07:54:47;;;;;;;321.90;77.07;;;;;3.40;96168.00;;;;5059855;28;21104;-69
2024/02/07 07:57:36;;;;;;;321.70;75.27;;;;;3.60;96160.00;;;;5054798;28;21075;-70
2024/02/07 08:00:26;;;;;;;318.07;72.57;;;;;3.80;96171.00;;;;5057476;28;20851;-70
2024/02/07 08:03:15;;;;;;;326.00;78.77;;;;;4.00;96167.00;;;;5055866;28;21158;-71
2024/02/07 08:06:07;;;;;;;313.63;70.97;;;;;4.10;96147.00;;;;5068042;28;20807;-71
2024/02/07 08:08:57;;;;;;;327.90;77.53;;;;;4.30;96159.00;;;;5062905;28;20434;-70
2024/02/07 08:11:46;;;;;;;325.73;76.07;;;;;4.80;96155.00;;;;5057469;28;20506;-70
2024/02/07 08:14:36;;;;;;;318.47;72.13;;;;;4.50;96147.00;;;;5061431;28;20441;-71
2024/02/07 08:17:25;;;;;;;317.27;71.00;;;;;4.70;96144.00;;;;5062703;28;20938;-72
2024/02/07 08:20:14;;;;;;;318.77;73.10;;;;;4.90;96144.00;;;;5066445;22;20498;-84
2024/02/07 08:23:05;;;;;;;319.63;74.43;;;;;5.50;96140.00;;;;5042255;28;20459;-84
2024/02/07 08:25:54;;;;;;;331.20;79.77;;;;;5.70;96145.00;;;;5028935;28;20417;-85
2024/02/07 08:28:43;;;;;;;333.73;80.27;;;;;6.30;96147.00;;;;5029559;28;20439;-83
2024/02/07 08:31:33;;;;;;;327.83;76.97;;;;;6.30;96142.00;;;;5030365;28;20472;-84
2024/02/07 08:34:22;;;;;;;323.50;75.20;;;;;6.80;96136.00;;;;5028509;28;20457;-84
2024/02/07 08:37:12;;;;;;;319.83;75.33;;;;;7.10;96138.00;;;;5026173;28;20482;-83
2024/02/07 08:40:02;;;;;;;329.97;79.73;;;;;7.40;96135.00;;;;5036387;28;20421;-84
2024/02/07 08:42:51;;;;;;;345.07;87.20;;;;;7.60;96141.00;;;;5035329;28;20448;-84
2024/02/07 08:45:40;;;;;;;340.27;84.47;;;;;7.20;96139.00;;;;5029220;28;20447;-84
2024/02/07 08:48:30;;;;;;;339.10;87.27;;;;;7.60;96132.00;;;;5026387;28;20429;-84
2024/02/07 08:51:19;;;;;;;336.77;83.43;;;;;7.90;96136.00;;;;5030756;28;20463;-83
2024/02/07 08:54:08;;;;;;;336.33;84.13;;;;;8.40;96145.00;;;;5035930;28;20467;-84
2024/02/07 08:56:58;;;;;;;340.20;87.10;;;;;8.30;96143.00;;;;5031546;28;20432;-83
2024/02/07 08:59:47;;;;;;;347.00;89.77;;;;;8.50;96147.00;;;;5027067;28;20463;-84
2024/02/07 09:02:37;;;;;;;337.30;85.70;;;;;8.40;96151.00;;;;5034162;28;20760;-84
2024/02/07 09:05:26;;;;;;;335.90;84.53;;;;;8.90;96134.00;;;;5035764;28;20432;-84
2024/02/07 09:08:15;;;;;;;341.23;87.20;;;;;8.70;96137.00;;;;5028417;28;20448;-84
2024/02/07 09:11:05;;;;;;;335.57;86.50;;;;;9.20;96156.00;;;;5031249;28;20474;-84
2024/02/07 09:13:55;;;;;;;349.03;93.73;;;;;8.80;96143.00;;;;5031766;28;20448;-84
2024/02/07 09:16:44;;;;;;;351.20;96.33;;;;;9.20;96148.00;;;;5026988;28;20440;-84
2024/02/07 09:19:34;;;;;;;341.30;91.23;;;;;9.60;96144.00;;;;5028247;28;20437;-84
2024/02/07 09:22:23;;;;;;;337.13;88.70;;;;;9.50;96135.00;;;;5030267;28;20427;-83
2024/02/07 09:25:12;;;;;;;338.53;89.97;;;;;9.80;96139.00;;;;5032990;28;20845;-84
2024/02/07 09:28:01;;;;;;;343.23;94.80;;;;;10.60;96143.00;;;;5023730;28;20813;-84
2024/02/07 09:30:52;;;;;;;342.77;90.77;;;;;10.80;96138.00;;;;5036818;28;20451;-85
2024/02/07 09:33:41;;;;;;;347.97;94.90;;;;;11.00;96148.00;;;;5030355;28;20237;-84
2024/02/07 09:36:31;;;;;;;349.63;99.23;;;;;11.40;96138.00;;;;5032007;28;20217;-85
2024/02/07 09:39:22;;;;;;;344.57;97.80;;;;;12.10;96139.00;;;;5031717;28;20244;-85
2024/02/07 09:42:11;;;;;;;347.73;97.73;;;;;12.60;96130.00;;;;5033815;28;20194;-85
2024/02/07 09:45:03;;;;;;;347.43;103.20;;;;;12.10;96131.00;;;;5034493;28;20214;-85
2024/02/07 09:48:01;;;;;;;355.13;106.60;;;;;12.90;96126.00;;;;5032572;28;20293;-84
2024/02/07 09:50:51;;;;;;;349.03;100.80;;;;;13.20;96134.00;;;;5035175;28;20213;-83
2024/02/07 09:53:41;;;;;;;352.50;108.63;;;;;13.60;96128.00;;;;5036418;28;20233;-85
2024/02/07 09:56:31;;;;;;;358.83;111.57;;;;;14.00;96121.00;;;;5033737;28;20197;-85
2024/02/07 09:59:23;;;;;;;353.53;112.37;;;;;14.80;96109.00;;;;5032917;28;20205;-86
2024/02/07 10:02:16;;;;;;;356.13;112.83;;;;;15.40;96114.00;;;;5035645;28;20694;-86
2024/02/07 10:05:07;;;;;;;356.23;116.63;;;;;15.70;96115.00;;;;5031863;28;20206;-86
2024/02/07 10:07:56;;;;;;;363.43;120.70;;;;;16.10;96115.00;;;;5035927;28;20592;-86
2024/02/07 10:10:47;;;;;;;367.23;125.87;;;;;16.30;96118.00;;;;5031699;28;20209;-86
2024/02/07 10:13:38;;;;;;;369.23;134.63;;;;;16.30;96111.00;;;;5031241;28;20264;-86
2024/02/07 10:16:28;;;;;;;369.83;133.70;;;;;16.70;96098.00;;;;5029628;28;20206;-86
2024/02/07 10:19:18;;;;;;;376.43;140.63;;;;;17.20;96098.00;;;;5077277;23;21627;-75
2024/02/07 10:22:17;;;;;;;365.03;140.43;;;;;17.50;96094.00;;;;5067042;28;20188;-73
2024/02/07 10:25:07;;;;;;;370.87;144.07;;;;;17.80;96092.00;;;;5073116;28;20208;-72
2024/02/07 10:28:02;;;;;;;382.60;155.73;;;;;17.40;96082.00;;;;5070289;28;20203;-71
2024/02/07 10:30:58;;;;;;;385.47;163.27;;;;;17.90;96079.00;;;;5075784;28;20636;-72
2024/02/07 10:33:49;;;;;;;386.03;167.00;;;;;18.00;96084.00;;;;5074665;28;20218;-72
2024/02/07 10:36:38;;;;;;;391.30;173.20;;;;;18.20;96083.00;;;;5073059;28;20264;-71
2024/02/07 10:39:29;;;;;;;372.90;164.07;;;;;18.40;96079.00;;;;5073640;28;20198;-72
2024/02/07 10:42:19;;;;;;;375.63;167.63;;;;;18.30;96071.00;;;;5064299;28;20242;-72
2024/02/07 10:45:09;;;;;;;374.17;179.53;;;;;18.60;96081.00;;;;5065738;28;20204;-71
2024/02/07 10:47:59;;;;;;;392.80;186.27;;;;;18.20;96078.00;;;;5065693;28;20324;-73
2024/02/07 10:50:48;;;;;;;390.20;191.13;;;;;18.10;96064.00;;;;5066473;28;20235;-72
2024/02/07 10:53:38;;;;;;;375.47;178.37;;;;;18.50;96069.00;;;;5067797;28;20276;-72
2024/02/07 10:56:28;;;;;;;380.07;187.60;;;;;18.40;96069.00;;;;5066007;28;20583;-73
2024/02/07 10:59:17;;;;;;;379.33;186.50;;;;;18.30;96067.00;;;;5062344;28;20212;-73
2024/02/07 11:02:11;;;;;;;368.33;174.63;;;;;18.30;96063.00;;;;5066018;28;20573;-70
2024/02/07 11:05:02;;;;;;;385.93;189.63;;;;;18.30;96063.00;;;;5065061;28;20203;-70
2024/02/07 11:07:51;;;;;;;387.93;189.80;;;;;18.30;96053.00;;;;5067152;28;20204;-72
2024/02/07 11:10:41;;;;;;;378.87;183.13;;;;;18.40;96054.00;;;;5066747;28;20247;-71
2024/02/07 11:13:32;;;;;;;372.47;177.60;;;;;18.30;96047.00;;;;5066822;28;20227;-70
2024/02/07 11:16:21;;;;;;;373.53;182.83;;;;;17.90;96037.00;;;;5064889;28;20266;-71
2024/02/07 11:19:11;;;;;;;387.70;186.97;;;;;18.30;96035.00;;;;5065669;28;20220;-72
2024/02/07 11:22:00;;;;;;;388.00;188.37;;;;;18.00;96024.00;;;;5066135;28;20207;-71
2024/02/07 11:24:52;;;;;;;391.37;197.53;;;;;18.20;96022.00;;;;5065279;28;20200;-74
2024/02/07 11:27:41;;;;;;;375.47;186.93;;;;;18.60;96012.00;;;;5065759;28;20208;-72
2024/02/07 11:30:32;;;;;;;385.60;194.97;;;;;18.20;96023.00;;;;5061840;28;20219;-71
2024/02/07 11:33:21;;;;;;;383.63;195.30;;;;;18.30;96015.00;;;;5065874;28;20226;-74
2024/02/07 11:36:17;;;;;;;377.03;191.93;;;;;18.40;95998.00;;;;5070725;28;20684;-72
2024/02/07 11:39:15;;;;;;;387.60;197.57;;;;;19.40;96021.00;;;;5066852;28;20683;-72
2024/02/07 11:42:13;;;;;;;377.63;192.53;;;;;19.90;96013.00;;;;5069882;28;20219;-72
2024/02/07 11:45:05;;;;;;;381.80;202.00;;;;;20.30;95995.00;;;;5067695;28;20329;-72
2024/02/07 11:47:55;;;;;;;382.87;206.70;;;;;20.50;96015.00;;;;5068717;28;20206;-72
2024/02/07 11:50:45;;;;;;;395.30;235.93;;;;;20.80;96008.00;;;;5069552;28;20235;-72
2024/02/07 11:53:38;;;;;;;386.50;227.73;;;;;21.00;95991.00;;;;5067310;28;20230;-72
2024/02/07 11:56:28;;;;;;;390.13;243.83;;;;;20.70;96008.00;;;;5066955;28;20210;-72
2024/02/07 11:59:18;;;;;;;392.90;247.70;;;;;20.60;96009.00;;;;5066532;28;20196;-72
2024/02/07 12:02:07;;;;;;;393.90;254.40;;;;;20.20;96010.00;;;;5070220;28;20199;-72
2024/02/07 12:04:57;;;;;;;399.37;257.97;;;;;20.10;96007.00;;;;5068143;28;20742;-71
2024/02/07 12:07:48;;;;;;;395.63;250.97;;;;;20.20;96004.00;;;;5071315;28;20211;-71
2024/02/07 12:10:37;;;;;;;377.33;230.83;;;;;20.10;96002.00;;;;5070629;28;20289;-72
2024/02/07 12:13:27;;;;;;;382.60;245.73;;;;;20.30;96002.00;;;;5066380;28;20714;-72
2024/02/07 12:16:17;;;;;;;386.87;236.90;;;;;20.70;95984.00;;;;5070218;28;20208;-73
2024/02/07 12:19:06;;;;;;;391.77;244.50;;;;;21.50;95991.00;;;;5067408;28;20238;-73
2024/02/07 12:21:56;;;;;;;398.00;255.37;;;;;21.90;95962.00;;;;5070467;28;20202;-72
2024/02/07 12:24:46;;;;;;;391.43;261.50;;;;;22.60;95985.00;;;;5068698;28;20208;-72
2024/02/07 12:27:37;;;;;;;390.07;275.10;;;;;22.30;95985.00;;;;5069146;28;20196;-73
2024/02/07 12:30:26;;;;;;;394.90;290.17;;;;;22.20;95970.00;;;;5067332;28;20818;-73
2024/02/07 12:33:15;;;;;;;408.30;305.30;;;;;22.40;95966.00;;;;5069704;28;20242;-72
2024/02/07 12:36:04;;;;;;;398.67;293.00;;;;;22.60;95951.00;;;;5065225;28;20680;-74
2024/02/07 12:38:55;;;;;;;407.73;309.20;;;;;22.80;95935.00;;;;5064679;28;20214;-73
2024/02/07 12:41:44;;;;;;;411.63;315.17;;;;;23.90;95926.00;;;;5064510;28;20211;-73
2024/02/07 12:44:33;;;;;;;411.20;331.20;;;;;23.70;95940.00;;;;5069001;28;20196;-72
2024/02/07 12:47:23;;;;;;;417.87;343.60;;;;;23.50;95933.00;;;;5065445;28;20223;-74
2024/02/07 12:50:12;;;;;;;418.70;349.50;;;;;22.40;95923.00;;;;5064437;28;20713;-72
2024/02/07 12:53:02;;;;;;;425.00;351.23;;;;;21.70;95904.00;;;;5069457;28;20230;-72
2024/02/07 12:55:53;;;;;;;414.43;341.77;;;;;22.10;95904.00;;;;5068819;28;20211;-74
2024/02/07 12:58:43;;;;;;;428.37;357.87;;;;;23.40;95916.00;;;;5065672;28;20230;-73
2024/02/07 13:01:32;;;;;;;406.87;345.70;;;;;23.70;95913.00;;;;5071165;28;20212;-70
2024/02/07 13:04:21;;;;;;;413.37;365.73;;;;;23.90;95906.00;;;;5064696;28;20257;-70
2024/02/07 13:07:11;;;;;;;409.77;353.80;;;;;22.10;95881.00;;;;5065905;28;20199;-69
2024/02/07 13:10:00;;;;;;;418.10;372.13;;;;;23.80;95890.00;;;;5067737;28;20238;-72
2024/02/07 13:12:51;;;;;;;431.33;383.63;;;;;22.40;95878.00;;;;5071823;28;20219;-73
2024/02/07 13:15:40;;;;;;;430.47;383.63;;;;;21.60;95872.00;;;;5074001;28;20206;-72
2024/02/07 13:18:29;;;;;;;420.27;369.83;;;;;22.70;95864.00;;;;5066349;28;20208;-73
2024/02/07 13:21:18;;;;;;;405.43;352.57;;;;;23.90;95867.00;;;;5065507;28;20224;-73
2024/02/07 13:24:10;;;;;;;421.00;375.23;;;;;23.10;95853.00;;;;5066952;28;20587;-72
2024/02/07 13:26:59;;;;;;;432.43;383.97;;;;;23.50;95848.00;;;;5065285;28;20217;-70
2024/02/07 13:29:50;;;;;;;422.57;376.17;;;;;21.20;95861.00;;;;5065644;28;20228;-74
2024/02/07 13:32:39;;;;;;;429.50;382.67;;;;;21.50;95859.00;;;;5068145;28;20227;-72
2024/02/07 13:35:28;;;;;;;417.30;370.27;;;;;21.90;95860.00;;;;5062856;28;20204;-74
2024/02/07 13:38:19;;;;;;;420.67;373.93;;;;;21.00;95844.00;;;;5065198;28;20215;-72
2024/02/07 13:41:10;;;;;;;416.43;364.90;;;;;22.80;95849.00;;;;5067135;28;20224;-70
2024/02/07 13:43:59;;;;;;;422.47;373.53;;;;;24.80;95850.00;;;;5067948;28;20204;-72
2024/02/07 13:46:49;;;;;;;448.67;399.37;;;;;22.90;95839.00;;;;5062780;28;20999;-74
2024/02/07 13:49:39;;;;;;;453.53;405.70;;;;;24.10;95843.00;;;;5064706;28;20232;-74
2024/02/07 13:52:28;;;;;;;461.93;414.53;;;;;25.40;95848.00;;;;5067575;28;20204;-72
2024/02/07 13:55:17;;;;;;;486.30;438.43;;;;;25.60;95844.00;;;;5065867;28;20203;-72
2024/02/07 13:58:06;;;;;;;504.63;454.83;;;;;26.30;95860.00;;;;5064525;28;20209;-70
2024/02/07 14:00:55;;;;;;;520.73;471.10;;;;;25.50;95837.00;;;;5066025;28;20634;-73
2024/02/07 14:03:46;;;;;;;515.50;466.27;;;;;26.70;95844.00;;;;5065425;28;20232;-72
2024/02/07 14:06:35;;;;;;;533.37;483.33;;;;;27.30;95826.00;;;;5070695;28;20561;-71
2024/02/07 14:09:24;;;;;;;536.53;487.83;;;;;27.60;95831.00;;;;5064570;28;20205;-73
2024/02/07 14:12:13;;;;;;;548.43;499.50;;;;;27.10;95869.00;;;;5071554;28;20214;-72
2024/02/07 14:15:03;;;;;;;572.87;521.83;;;;;26.00;95847.00;;;;5068138;28;20199;-72
2024/02/07 14:17:53;;;;;;;562.37;511.80;;;;;26.70;95850.00;;;;5065765;28;20218;-72
2024/02/07 14:20:44;;;;;;;557.87;508.13;;;;;26.30;95843.00;;;;5063645;28;20225;-71
2024/02/07 14:23:36;;;;;;;556.70;506.90;;;;;26.30;95854.00;;;;5063798;28;20212;-72
2024/02/07 14:26:25;;;;;;;558.43;508.33;;;;;25.30;95842.00;;;;5064072;28;20584;-73
2024/02/07 14:29:14;;;;;;;530.93;481.53;;;;;24.80;95849.00;;;;5071954;28;20209;-73
2024/02/07 14:32:04;;;;;;;530.17;479.77;;;;;23.80;95850.00;;;;5064547;28;20528;-71
2024/02/07 14:34:53;;;;;;;508.50;459.27;;;;;23.90;95852.00;;;;5073626;28;20256;-70
2024/02/07 14:37:44;;;;;;;485.83;437.47;;;;;23.90;95857.00;;;;5065154;28;20207;-72
2024/02/07 14:40:33;;;;;;;458.50;411.50;;;;;23.10;95846.00;;;;5064041;28;20227;-70
2024/02/07 14:43:22;;;;;;;446.40;399.13;;;;;22.70;95850.00;;;;5064691;28;20202;-71
2024/02/07 14:46:11;;;;;;;428.50;382.23;;;;;22.50;95836.00;;;;5065618;28;20626;-72